Date,TemperatureHighF,TemperatureAvgF,TemperatureLowF,DewpointHighF,DewpointAvgF,DewpointLowF,HumidityHigh,HumidityAvg,HumidityLow,PressureMaxIn,PressureMinIn,WindSpeedMaxMPH,WindSpeedAvgMPH,GustSpeedMaxMPH,PrecipitationSumIn
2013-1-1,37.3,31.9,19.8,28.0,18.9,7.0,73,60,47,29.87,29.66,16,3,0,0.01
2013-1-2,30.2,20.9,12.3,18.0,9.2,0.0,71,61,53,30.04,29.84,11,2,0,0.00
2013-1-3,25.7,15.4,6.6,12.0,1.1,-5.0,69,54,31,30.08,29.94,8,2,0,0.00
2013-1-4,39.5,30.0,19.4,26.0,20.7,12.0,84,69,54,29.93,29.75,7,1,0,0.03
2013-1-5,42.9,33.6,24.9,26.0,22.5,18.0,82,65,41,30.20,29.79,9,1,0,0.02
2013-1-6,43.5,34.2,25.8,30.0,27.1,21.0,88,76,57,30.17,29.88,11,1,0,0.00
2013-1-7,40.1,33.6,26.6,30.0,26.0,18.0,93,75,48,30.35,29.90,7,1,0,0.00
2013-1-8,47.0,37.3,28.1,30.0,28.8,26.0,94,73,51,30.32,30.20,8,1,0,0.00
2013-1-9,44.7,37.6,27.0,37.0,30.4,25.0,92,76,58,30.34,29.94,8,1,0,0.00
2013-1-10,47.2,42.3,34.3,29.0,25.9,24.0,69,53,42,30.48,29.97,19,4,0,0.00
2013-1-11,41.3,36.1,28.7,37.0,30.2,24.0,95,79,68,30.46,30.18,5,0,0,0.09
2013-1-12,44.7,42.0,38.4,43.0,41.0,37.0,98,96,93,30.18,30.07,1,0,0,0.02
2013-1-13,53.2,47.9,43.4,51.0,46.9,43.0,99,96,91,30.09,29.93,8,0,0,0.00
2013-1-14,62.3,53.2,42.8,54.0,44.5,28.0,95,74,46,30.19,29.80,10,2,0,0.00
2013-1-15,42.4,38.9,34.6,28.0,26.8,25.0,69,62,56,30.26,30.16,7,1,0,0.00
2013-1-16,34.8,33.3,30.7,33.0,30.2,24.0,96,89,65,30.19,29.77,4,0,0,0.15
2013-1-17,42.0,35.4,29.8,34.0,28.5,14.0,96,77,51,30.04,29.78,7,1,0,0.29
2013-1-18,29.7,23.0,17.6,13.0,2.0,-3.0,51,41,30,30.39,30.01,10,2,0,0.00
2013-1-19,49.6,38.1,24.0,33.0,23.2,7.0,74,56,39,30.33,29.84,11,2,0,0.00
2013-1-20,54.6,42.5,29.7,35.0,27.0,11.0,75,56,35,29.86,29.48,15,4,0,0.00
2013-1-21,30.1,25.7,21.9,22.0,11.2,4.0,89,56,37,30.04,29.74,9,2,0,0.00
2013-1-22,25.6,21.3,14.0,20.0,9.9,0.0,92,64,39,30.02,29.70,11,3,0,0.00
2013-1-23,16.6,11.9,7.6,3.0,-7.1,-12.0,63,43,28,30.08,30.00,13,3,0,0.00
2013-1-24,20.1,11.6,3.6,-7.0,-9.3,-12.0,55,40,26,30.15,30.00,15,5,0,0.00
2013-1-25,24.9,17.1,8.7,14.0,-5.6,-10.0,83,38,25,30.24,30.01,13,3,0,0.00
2013-1-26,24.6,18.2,12.7,14.0,3.9,-7.0,85,57,30,30.16,29.95,10,3,0,0.00
2013-1-27,31.1,21.9,14.3,4.0,1.4,-4.0,63,43,27,30.41,30.16,13,4,0,0.00
2013-1-28,31.7,26.0,19.2,29.0,13.3,1.0,95,62,32,30.39,29.96,4,0,0,0.00
2013-1-29,35.0,31.1,26.2,34.0,29.0,25.0,95,91,85,30.14,29.96,5,0,0,0.12
2013-1-30,61.9,49.7,34.6,58.0,48.3,33.0,99,94,86,30.10,29.43,10,1,0,0.16
2013-1-31,61.6,48.9,31.1,60.0,38.6,17.0,94,70,40,29.53,28.92,15,4,0,0.36
2013-2-1,33.7,29.5,23.1,19.0,9.9,6.0,61,44,34,30.02,29.53,13,4,0,0.00
2013-2-2,31.7,25.3,18.0,13.0,7.7,4.0,58,48,36,30.20,30.00,10,2,0,0.00
2013-2-3,27.1,25.2,22.7,23.0,20.5,13.0,89,83,56,30.00,29.67,8,1,0,0.00
2013-2-4,31.0,25.3,21.0,22.0,12.1,5.0,89,59,39,29.88,29.66,13,3,0,0.00
2013-2-5,29.3,25.6,21.6,25.0,14.0,8.0,92,63,47,29.98,29.88,6,1,0,0.00
2013-2-6,39.1,31.0,25.8,28.0,20.6,7.0,93,69,40,30.23,29.87,13,2,0,0.06
2013-2-7,30.5,24.8,17.3,19.0,4.2,0.0,68,42,29,30.47,30.24,9,2,0,0.00
2013-2-8,33.4,30.2,18.7,32.0,27.3,17.0,97,89,70,30.43,29.54,14,5,0,0.01
2013-2-9,20.9,18.7,15.8,19.0,15.6,8.0,95,88,70,30.12,29.50,18,6,0,0.00
2013-2-10,40.4,23.9,9.9,21.0,10.3,3.0,75,58,32,30.34,30.13,10,2,0,0.03
2013-2-11,44.6,32.6,21.5,44.0,29.7,13.0,98,89,64,30.30,29.55,4,0,0,0.27
2013-2-12,45.2,39.7,35.1,38.0,30.6,27.0,98,71,53,29.82,29.54,14,3,0,0.00
2013-2-13,44.4,36.1,28.1,30.0,26.3,24.0,85,69,49,29.81,29.64,6,1,0,0.00
2013-2-14,46.4,36.9,31.1,30.0,25.3,21.0,83,64,42,29.94,29.66,5,1,0,0.00
2013-2-15,53.5,40.8,30.8,37.0,32.8,25.0,93,75,51,29.95,29.85,5,0,0,0.00
2013-2-16,39.3,35.3,32.0,33.0,28.7,20.0,95,78,57,29.89,29.66,7,2,0,0.03
2013-2-17,31.7,22.7,18.1,21.0,12.6,3.0,92,68,45,29.64,29.31,20,7,0,0.01
2013-2-18,32.7,23.4,15.7,5.0,2.5,-1.0,61,42,26,30.10,29.60,17,6,0,0.00
2013-2-19,48.0,37.5,23.1,43.0,25.7,5.0,97,65,42,30.11,29.52,8,1,0,0.39
2013-2-20,42.9,33.6,27.2,42.0,21.9,12.0,97,64,42,29.71,29.48,15,4,0,0.00
2013-2-21,32.8,28.1,25.1,17.0,14.3,11.0,69,57,45,30.11,29.71,15,4,0,0.00
2013-2-22,40.1,32.8,25.0,27.0,22.7,17.0,79,67,49,30.34,30.13,10,2,0,0.00
2013-2-23,38.9,35.7,31.7,35.0,31.0,26.0,96,83,72,30.28,29.87,7,1,0,0.18
2013-2-24,38.4,35.0,31.3,38.0,34.2,30.0,97,96,95,29.86,29.64,6,1,0,0.55
2013-2-25,41.7,35.5,30.4,34.0,31.1,29.0,96,84,65,30.19,29.84,4,0,0,0.22
2013-2-26,43.2,36.9,29.5,37.0,31.5,28.0,98,82,63,30.29,30.11,8,1,0,0.01
2013-2-27,41.7,40.4,39.0,41.0,39.0,34.0,100,95,82,30.11,29.49,11,5,0,1.01
2013-2-28,49.1,39.8,34.5,40.0,36.3,34.0,97,88,67,29.59,29.47,4,0,0,0.01
2013-3-1,41.4,38.5,35.4,36.0,32.1,29.0,91,78,66,29.62,29.48,7,1,0,0.00
2013-3-2,44.6,38.3,32.0,32.0,28.9,27.0,82,69,57,29.62,29.56,8,2,0,0.00
2013-3-3,42.7,36.5,32.9,35.0,30.2,27.0,92,78,66,29.59,29.50,8,2,0,0.00
2013-3-4,40.0,34.9,31.2,30.0,25.7,23.0,89,69,54,29.68,29.52,14,6,0,0.00
2013-3-5,44.6,37.5,31.3,35.0,29.2,23.0,89,72,58,30.02,29.68,11,2,0,0.00
2013-3-6,40.8,38.0,35.5,37.0,34.0,31.0,93,86,71,30.07,29.99,17,4,0,0.09
2013-3-7,37.0,33.1,31.1,33.0,31.0,30.0,95,92,76,30.02,29.93,13,3,0,0.20
2013-3-8,42.1,34.5,29.6,33.0,28.4,24.0,97,81,52,30.09,29.88,14,3,0,0.11
2013-3-9,45.7,36.7,29.5,34.0,27.8,23.0,94,71,56,30.30,30.09,7,2,0,0.15
2013-3-10,42.1,35.1,28.0,34.0,31.0,27.0,95,85,72,30.36,30.27,4,1,0,0.01
2013-3-11,54.4,43.7,35.5,42.0,37.7,33.0,92,80,57,30.28,30.10,3,0,0,0.00
2013-3-12,56.4,49.7,42.3,54.0,47.9,41.0,97,93,84,30.11,29.68,6,1,0,0.21
2013-3-13,53.6,46.0,37.1,52.0,32.9,21.0,97,64,33,29.73,29.64,10,3,0,0.01
2013-3-14,38.3,33.1,23.9,26.0,16.6,9.0,66,51,39,29.77,29.65,12,4,0,0.00
2013-3-15,42.2,30.6,20.6,28.0,13.0,5.0,73,50,25,29.81,29.57,14,4,0,0.00
2013-3-16,40.8,34.8,27.5,27.0,16.0,9.0,72,48,29,29.82,29.61,10,2,0,0.00
2013-3-17,39.0,31.7,24.7,17.0,11.3,6.0,70,45,26,30.26,29.83,10,2,0,0.00
2013-3-18,37.4,29.0,19.4,28.0,12.2,1.0,91,51,34,30.41,30.21,5,1,0,0.00
2013-3-19,36.1,33.0,28.9,35.0,32.0,27.0,98,96,91,30.20,29.55,13,5,0,0.01
2013-3-20,39.2,32.0,25.6,26.0,22.9,20.0,92,71,47,29.76,29.63,9,3,0,0.00
2013-3-21,38.0,31.7,26.5,30.0,23.9,19.0,93,74,49,29.77,29.56,6,1,0,0.00
2013-3-22,41.3,34.6,29.6,29.0,21.7,18.0,92,61,41,29.68,29.55,10,3,0,0.00
2013-3-23,44.9,36.1,28.5,24.0,20.9,18.0,76,56,35,29.72,29.57,16,4,0,0.00
2013-3-24,49.9,39.2,31.1,33.0,25.9,21.0,81,61,38,29.75,29.67,9,2,0,0.00
2013-3-25,46.1,38.6,32.7,36.0,31.7,27.0,86,76,62,29.72,29.48,12,1,0,0.00
2013-3-26,51.4,41.9,34.1,33.0,26.3,21.0,94,58,31,29.72,29.48,13,2,0,0.01
2013-3-27,53.4,43.9,31.9,33.0,25.8,23.0,71,51,33,29.81,29.68,10,2,0,0.00
2013-3-28,48.3,42.9,37.6,37.0,34.8,31.0,91,74,51,29.96,29.81,5,1,0,0.01
2013-3-29,58.1,46.9,35.3,38.0,34.2,30.0,85,63,37,29.98,29.91,11,1,0,0.01
2013-3-30,57.6,46.6,37.3,35.0,31.1,21.0,80,58,24,30.04,29.95,8,1,0,0.00
2013-3-31,60.6,46.4,31.0,41.0,30.3,25.0,84,57,28,30.07,29.71,6,1,0,0.01
2013-4-1,63.5,47.9,36.7,48.0,37.9,13.0,97,72,34,29.73,29.45,18,4,0,0.00
2013-4-2,39.9,35.2,30.0,17.0,14.0,11.0,52,42,30,29.89,29.73,19,4,0,0.00
2013-4-3,47.3,37.6,30.5,18.0,13.8,9.0,58,40,22,30.10,29.87,15,4,0,0.00
2013-4-4,58.1,43.5,29.6,27.0,17.2,13.0,61,38,17,30.24,30.00,11,2,0,0.00
2013-4-5,61.6,47.9,38.9,34.0,28.3,22.0,70,50,25,30.00,29.57,16,3,0,0.00
2013-4-6,47.7,38.2,32.6,25.0,12.6,3.0,58,38,17,30.28,29.82,13,4,0,0.00
2013-4-7,54.1,45.0,30.3,41.0,30.6,20.0,84,60,33,30.28,29.95,11,2,0,0.00
2013-4-8,66.6,52.3,45.2,44.0,41.4,37.0,92,69,34,30.05,29.89,7,1,0,0.00
2013-4-9,72.2,53.9,45.8,53.0,45.3,40.0,96,75,41,30.04,29.81,13,2,0,0.01
2013-4-10,57.7,49.4,45.9,48.0,45.1,43.0,95,86,69,29.96,29.82,6,1,0,0.00
2013-4-11,51.3,46.4,43.6,46.0,41.9,31.0,97,85,61,30.09,29.78,6,1,0,0.00
2013-4-12,43.3,39.8,37.9,39.0,36.1,32.0,96,87,67,30.12,29.73,11,3,0,0.01
2013-4-13,53.3,42.5,36.2,41.0,38.3,35.0,96,86,58,29.88,29.72,6,1,0,0.00
2013-4-14,53.1,46.8,39.9,42.0,34.1,28.0,94,64,38,30.15,29.86,12,2,0,0.00
2013-4-15,54.0,45.3,35.1,41.0,35.1,30.0,84,69,48,30.34,30.16,9,2,0,0.00
2013-4-16,66.3,53.3,39.6,52.0,42.4,37.0,92,69,46,30.36,30.01,13,1,0,0.00
2013-4-17,68.5,59.7,48.1,54.0,39.0,28.0,85,51,24,30.28,30.00,9,2,0,0.00
2013-4-18,63.0,52.6,44.3,46.0,36.5,29.0,75,56,33,30.38,30.10,11,2,0,0.00
2013-4-19,76.6,64.7,53.6,64.0,59.0,46.0,97,82,60,30.10,29.61,10,2,0,0.00
2013-4-20,67.2,55.3,46.3,64.0,42.6,25.0,95,66,39,30.14,29.55,12,3,0,0.10
2013-4-21,55.3,43.5,35.5,33.0,25.3,20.0,71,50,29,30.63,30.16,11,2,0,0.00
2013-4-22,50.7,42.9,34.4,37.0,32.4,24.0,84,68,35,30.72,30.55,12,2,0,0.00
2013-4-23,42.8,41.8,40.1,42.0,39.1,33.0,96,90,73,30.54,30.08,11,2,0,0.05
2013-4-24,69.9,54.0,42.7,54.0,46.9,42.0,96,79,48,30.06,29.74,8,2,0,0.01
2013-4-25,67.3,56.5,46.5,54.0,39.4,27.0,92,58,23,30.21,29.78,13,2,0,0.03
2013-4-26,57.1,49.7,45.0,43.0,37.4,31.0,90,64,44,30.38,30.21,7,2,0,0.00
2013-4-27,62.5,51.7,38.8,43.0,37.8,30.0,97,63,33,30.37,30.25,6,1,0,0.00
2013-4-28,64.4,54.5,41.2,45.0,38.2,29.0,88,57,36,30.29,30.18,9,1,0,0.00
2013-4-29,71.1,58.6,49.1,49.0,39.8,19.0,83,54,21,30.23,30.13,12,1,0,0.00
2013-4-30,67.8,55.4,44.5,42.0,33.1,21.0,76,48,17,30.32,30.20,7,1,0,0.00
2013-5-1,66.6,53.5,41.1,46.0,40.5,32.0,88,64,28,30.43,30.32,5,0,0,0.00
2013-5-2,76.8,55.5,44.5,48.0,43.2,40.0,90,67,29,30.44,30.32,6,0,0,0.00
2013-5-3,59.5,49.7,42.4,47.0,42.1,39.0,91,76,57,30.47,30.33,6,1,0,0.00
2013-5-4,56.6,48.2,40.6,47.0,41.5,38.0,95,78,59,30.32,30.27,5,1,0,0.00
2013-5-5,59.5,48.4,38.4,44.0,40.9,37.0,96,77,51,30.28,30.22,5,0,0,0.00
2013-5-6,61.9,49.5,39.9,50.0,45.7,39.0,97,87,65,30.25,30.11,5,0,0,0.00
2013-5-7,71.7,60.3,45.2,60.0,52.7,44.0,98,78,52,30.13,30.05,5,0,0,0.00
2013-5-8,69.7,60.0,54.0,62.0,56.9,53.0,97,90,75,30.16,30.01,4,0,0,0.03
2013-5-9,66.7,58.5,55.7,65.0,57.8,55.0,99,97,84,30.01,29.84,1,0,0,0.16
2013-5-10,75.3,62.4,56.3,63.0,58.1,56.0,99,87,64,29.90,29.84,3,0,0,0.00
2013-5-11,73.3,65.0,60.0,64.0,60.4,56.0,94,85,70,29.86,29.64,7,1,0,0.04
2013-5-12,73.6,62.7,52.0,62.0,52.6,31.0,97,73,36,29.75,29.51,9,1,0,0.00
2013-5-13,62.1,51.7,43.3,35.0,31.4,28.0,72,48,29,29.97,29.76,11,2,0,0.00
2013-5-14,60.4,51.3,42.2,36.0,32.0,29.0,72,50,31,30.00,29.91,9,1,0,0.00
2013-5-15,68.6,53.0,38.4,54.0,41.1,31.0,89,67,33,30.00,29.62,6,1,0,0.01
2013-5-16,83.8,68.7,50.1,53.0,43.1,34.0,95,48,21,29.75,29.57,12,1,0,0.00
2013-5-17,70.7,59.8,52.2,48.0,43.6,40.0,79,57,33,30.16,29.76,9,1,0,0.00
2013-5-18,73.5,59.6,45.9,53.0,47.4,42.0,93,66,36,30.25,30.16,3,0,0,0.00
2013-5-19,70.3,56.9,49.6,56.0,51.4,47.0,97,83,59,30.30,30.18,4,0,0,0.20
2013-5-20,84.5,67.3,56.3,66.0,61.2,56.0,99,83,52,30.17,29.86,4,0,0,0.06
2013-5-21,75.5,60.1,51.5,66.0,57.2,51.0,98,91,68,29.97,29.83,6,0,0,0.22
2013-5-22,65.2,56.0,50.8,60.0,54.0,50.0,99,93,81,30.00,29.84,1,0,0,0.01
2013-5-23,77.5,64.8,54.8,70.0,62.0,54.0,99,91,75,29.87,29.76,4,0,0,0.07
2013-5-24,72.3,63.6,50.8,68.0,61.9,50.0,98,94,77,29.77,29.61,5,0,0,0.18
2013-5-25,53.1,48.8,42.2,52.0,47.8,40.0,100,96,93,29.76,29.64,6,1,0,0.01
2013-5-26,59.1,49.5,40.2,44.0,40.7,39.0,96,74,49,30.04,29.65,16,3,0,0.00
2013-5-27,74.7,59.1,42.1,46.0,40.6,35.0,94,57,24,30.12,30.02,8,1,0,0.00
2013-5-28,71.0,58.9,46.4,54.0,47.8,41.0,90,69,42,30.19,30.11,1,0,0,0.00
2013-5-29,71.2,62.9,58.6,65.0,60.3,55.0,98,91,79,30.14,29.93,3,0,0,0.27
2013-5-30,90.6,76.6,62.4,71.0,67.1,62.0,99,76,46,30.02,29.94,9,1,0,0.00
2013-5-31,97.3,82.7,65.9,70.0,66.9,64.0,95,63,36,30.03,29.87,7,1,0,0.00
2013-6-1,95.5,82.8,69.9,70.0,66.8,64.0,81,60,38,29.92,29.80,5,1,0,0.00
2013-6-2,93.0,80.0,70.4,71.0,68.0,66.0,88,69,43,29.83,29.67,9,1,0,0.00
2013-6-3,80.8,71.1,65.2,69.0,64.5,46.0,96,81,47,29.80,29.70,5,0,0,0.05
2013-6-4,74.0,63.0,51.1,49.0,46.0,43.0,76,56,37,30.04,29.77,7,1,0,0.00
2013-6-5,77.2,63.7,50.9,53.0,48.4,44.0,87,60,34,30.13,30.04,3,0,0,0.00
2013-6-6,72.8,64.6,55.9,57.0,51.9,48.0,82,64,51,30.14,30.05,4,0,0,0.00
2013-6-7,60.0,56.6,54.4,57.0,55.1,52.0,98,94,84,30.07,29.77,3,0,0,0.92
2013-6-8,80.3,65.9,54.1,66.0,59.5,54.0,99,82,60,29.95,29.55,5,1,0,0.14
2013-6-9,82.7,70.4,56.5,59.0,57.6,56.0,98,68,40,30.10,29.95,6,1,0,0.00
2013-6-10,67.8,63.0,57.9,60.0,58.0,57.0,97,84,71,30.16,29.98,1,0,0,0.11
2013-6-11,64.1,58.8,56.2,60.0,57.5,55.0,99,95,85,29.98,29.53,4,0,0,0.26
2013-6-12,71.5,62.4,56.6,60.0,57.1,55.0,99,84,59,29.75,29.51,14,2,0,0.01
2013-6-13,68.3,59.3,53.1,60.0,55.6,52.0,97,88,67,29.77,29.63,0,0,0,0.03
2013-6-14,77.4,61.8,51.9,61.0,55.2,51.0,98,81,52,29.70,29.59,4,0,0,0.22
2013-6-15,82.3,69.3,56.5,56.0,49.9,44.0,92,55,27,29.88,29.71,5,1,0,0.00
2013-6-16,77.5,68.2,56.0,64.0,55.1,50.0,84,64,44,29.88,29.66,6,0,0,0.00
2013-6-17,88.6,70.8,59.8,66.0,61.5,57.0,97,76,35,29.85,29.72,6,0,0,0.59
2013-6-18,74.2,63.4,58.8,65.0,60.7,58.0,99,91,68,29.89,29.83,4,0,0,0.47
2013-6-19,75.8,64.6,56.2,58.0,53.9,49.0,98,72,40,30.09,29.86,3,0,0,0.02
2013-6-20,78.9,67.2,53.5,62.0,55.4,51.0,94,68,43,30.20,30.09,2,0,0,0.00
2013-6-21,87.8,73.0,61.0,65.0,60.3,55.0,82,66,35,30.20,30.13,6,1,0,0.00
2013-6-22,86.8,75.1,64.7,65.0,61.1,58.0,78,63,42,30.17,30.06,6,1,0,0.00
2013-6-23,93.6,79.0,67.6,75.0,66.3,58.0,79,66,51,30.11,29.93,8,1,0,0.00
2013-6-24,96.4,81.7,71.7,74.0,71.7,69.0,97,74,46,29.96,29.81,6,1,0,0.40
2013-6-25,94.3,80.8,69.0,73.0,70.2,68.0,96,73,44,29.86,29.67,7,1,0,0.00
2013-6-26,85.6,75.1,67.8,75.0,70.2,67.0,97,85,59,29.80,29.66,4,0,0,0.22
2013-6-27,71.3,65.7,61.9,67.0,64.4,61.0,99,95,85,29.82,29.71,1,0,0,0.01
2013-6-28,84.7,71.7,61.7,76.0,68.7,61.0,100,91,66,29.72,29.44,9,1,0,0.41
2013-6-29,87.3,77.2,71.8,74.0,70.7,69.0,95,81,57,29.67,29.46,4,0,0,0.00
2013-6-30,89.1,78.3,71.0,75.0,71.3,69.0,94,80,58,29.88,29.67,6,0,0,0.00
2013-7-1,83.4,75.3,72.1,76.0,73.0,71.0,98,92,77,30.03,29.88,4,0,0,0.11
2013-7-2,84.3,74.0,62.6,76.0,70.0,61.0,95,87,69,30.16,30.02,3,0,0,0.01
2013-7-3,90.7,77.5,62.1,75.0,70.3,61.0,97,80,59,30.15,30.07,6,1,0,0.00
2013-7-4,96.2,84.5,74.4,77.0,74.6,73.0,94,74,49,30.14,30.03,6,1,0,0.00
2013-7-5,96.5,86.6,77.7,77.0,75.0,73.0,87,70,49,30.10,29.97,8,1,0,0.00
2013-7-6,94.3,84.2,77.3,76.0,73.2,65.0,88,71,49,30.01,29.91,7,1,0,0.00
2013-7-7,95.7,81.1,70.3,77.0,70.7,64.0,90,72,52,29.96,29.84,5,0,0,0.02
2013-7-8,84.0,77.2,68.1,76.0,72.3,65.0,94,85,68,30.02,29.85,3,0,0,0.00
2013-7-9,74.1,69.1,65.9,68.0,66.1,64.0,96,90,81,30.05,29.99,1,0,0,0.00
2013-7-10,88.2,74.9,67.0,76.0,71.2,65.0,99,89,66,30.02,29.74,9,0,0,0.00
2013-7-11,84.0,77.4,73.7,76.0,73.0,70.0,95,87,70,29.86,29.72,4,0,0,0.08
2013-7-12,79.3,71.6,67.5,71.0,63.0,58.0,94,75,52,30.14,29.87,7,0,0,0.00
2013-7-13,79.3,70.7,66.6,71.0,66.7,64.0,96,87,73,30.26,30.15,2,0,0,0.00
2013-7-14,94.2,79.3,68.1,75.0,72.3,67.0,98,81,48,30.25,30.15,5,0,0,0.00
2013-7-15,92.4,80.9,72.7,74.0,72.5,70.0,97,77,51,30.14,30.04,4,0,0,0.00
2013-7-16,96.7,80.9,72.2,74.0,71.0,67.0,95,74,43,30.11,30.05,3,0,0,0.12
2013-7-17,96.7,82.7,70.5,77.0,73.6,70.0,98,76,45,30.12,29.93,5,0,0,0.00
2013-7-18,89.3,81.9,76.7,76.0,73.1,69.0,88,76,55,29.96,29.89,4,0,0,0.00
2013-7-19,100.0,87.9,75.7,80.0,75.6,72.0,93,69,42,29.89,29.65,7,1,0,0.00
2013-7-20,95.3,86.2,78.3,78.0,75.0,68.0,86,70,48,29.75,29.58,6,1,0,0.00
2013-7-21,82.0,75.0,70.9,69.0,66.0,61.0,93,74,56,29.94,29.75,2,0,0,0.00
2013-7-22,81.9,72.8,66.7,72.0,68.7,66.0,99,87,67,29.97,29.84,3,0,0,0.00
2013-7-23,80.9,72.7,69.7,77.0,71.8,69.0,100,97,86,29.83,29.48,5,0,0,0.86
2013-7-24,87.9,77.5,68.8,74.0,69.0,57.0,100,77,54,29.90,29.53,6,1,0,0.00
2013-7-25,68.1,62.2,60.1,60.0,56.2,51.0,98,81,62,30.05,29.90,6,0,0,0.25
2013-7-26,70.8,65.1,60.4,67.0,63.9,60.0,98,96,86,30.00,29.87,6,0,0,0.74
2013-7-27,87.5,72.8,60.0,71.0,64.8,60.0,99,78,46,30.00,29.93,5,0,0,0.01
2013-7-28,81.3,71.7,67.8,72.0,68.4,65.0,97,89,74,29.97,29.92,3,0,0,0.00
2013-7-29,85.2,72.4,67.3,74.0,69.3,66.0,98,90,62,29.98,29.92,1,0,0,0.25
2013-7-30,86.3,73.4,61.4,69.0,62.7,57.0,99,72,40,30.04,29.97,4,0,0,0.01
2013-7-31,82.3,72.3,62.1,66.0,62.3,58.0,92,72,48,30.08,29.99,4,0,0,0.00
2013-8-1,80.6,72.8,64.3,68.0,64.3,62.0,96,75,58,30.00,29.83,6,0,0,0.00
2013-8-2,86.3,73.9,65.0,69.0,64.2,59.0,98,74,42,29.83,29.73,10,1,0,0.33
2013-8-3,81.3,73.1,66.6,66.0,63.9,62.0,90,74,54,29.81,29.72,9,1,0,0.00
2013-8-4,82.8,69.6,60.5,65.0,59.2,55.0,93,72,43,29.83,29.71,7,0,0,0.08
2013-8-5,79.1,66.0,58.9,55.0,50.0,41.0,83,60,27,30.00,29.82,2,0,0,0.00
2013-8-6,80.5,66.3,53.9,61.0,53.7,49.0,91,66,41,30.10,30.00,2,0,0,0.00
2013-8-7,81.2,69.6,57.8,62.0,57.8,51.0,97,69,40,30.13,30.05,4,0,0,0.00
2013-8-8,83.7,73.7,67.0,72.0,66.9,54.0,92,79,64,30.08,29.95,5,1,0,0.03
2013-8-9,75.6,73.8,72.2,75.0,72.5,70.0,99,95,89,29.97,29.69,4,0,0,1.01
2013-8-10,85.9,75.3,64.9,73.0,64.2,58.0,99,71,44,29.95,29.73,9,1,0,0.01
2013-8-11,83.0,70.9,56.2,61.0,56.6,53.0,94,63,39,30.03,29.95,5,0,0,0.00
2013-8-12,86.0,73.3,61.3,64.0,60.0,56.0,94,66,37,29.97,29.86,4,0,0,0.00
2013-8-13,78.1,70.7,65.5,69.0,65.5,62.0,94,84,65,29.87,29.64,0,0,0,0.00
2013-8-14,76.6,68.2,62.3,65.0,56.5,52.0,94,68,46,29.91,29.61,10,1,0,0.00
2013-8-15,80.2,66.8,55.0,55.0,52.9,49.0,90,64,37,30.06,29.91,4,1,0,0.00
2013-8-16,83.3,69.8,56.5,60.0,55.7,53.0,90,64,37,30.14,30.05,7,1,0,0.00
2013-8-17,79.5,69.0,60.8,63.0,59.3,56.0,89,73,48,30.22,30.14,3,0,0,0.00
2013-8-18,83.9,71.3,61.8,65.0,60.8,57.0,94,71,43,30.22,30.03,2,0,0,0.00
2013-8-19,83.9,73.0,61.4,64.0,61.4,59.0,93,69,47,30.03,29.89,8,0,0,0.00
2013-8-20,91.3,76.7,67.2,66.0,63.4,59.0,84,66,34,30.03,29.92,4,0,0,0.00
2013-8-21,93.8,78.2,63.9,67.0,64.6,61.0,91,66,38,30.09,29.96,7,0,0,0.00
2013-8-22,89.4,78.1,68.3,73.0,68.4,65.0,91,73,49,29.98,29.76,6,0,0,0.00
2013-8-23,82.0,73.0,65.1,71.0,62.0,53.0,93,70,48,30.07,29.77,5,0,0,0.00
2013-8-24,79.1,66.7,57.4,53.0,48.9,42.0,78,56,32,30.28,30.07,5,0,0,0.00
2013-8-25,82.9,70.4,55.8,58.0,53.5,49.0,87,58,36,30.31,30.13,2,0,0,0.00
2013-8-26,84.4,73.9,66.5,68.0,63.3,57.0,83,70,54,30.13,29.81,5,1,0,0.00
2013-8-27,83.3,73.7,66.4,71.0,68.3,65.0,96,84,62,29.84,29.78,2,0,0,0.00
2013-8-28,83.6,69.0,62.2,69.0,65.2,61.0,98,89,62,29.93,29.81,1,0,0,0.00
2013-8-29,66.8,65.0,63.0,65.0,62.5,59.0,96,91,85,30.02,29.91,5,0,0,0.00
2013-8-30,87.0,72.9,62.9,70.0,64.6,59.0,90,77,53,29.98,29.77,5,0,0,0.00
2013-8-31,82.1,75.4,70.4,75.0,72.0,68.0,96,89,77,29.78,29.73,5,0,0,0.12
2013-9-1,81.7,73.9,71.6,77.0,71.6,68.0,98,92,83,29.83,29.73,5,0,0,0.20
2013-9-2,81.6,75.7,72.5,77.0,72.8,70.0,98,91,76,29.82,29.66,4,0,0,0.01
2013-9-3,83.5,75.3,67.2,73.0,68.9,59.0,96,81,63,29.75,29.63,3,0,0,0.00
2013-9-4,83.4,71.3,60.8,61.0,58.2,55.0,89,66,40,29.86,29.75,6,1,0,0.00
2013-9-5,70.6,64.3,53.6,63.0,58.1,50.0,94,80,65,30.09,29.81,3,0,0,0.06
2013-9-6,73.3,59.9,48.4,49.0,44.1,39.0,85,59,32,30.19,30.04,4,0,0,0.00
2013-9-7,83.8,66.8,52.0,58.0,50.5,46.0,82,59,34,30.04,29.80,5,1,0,0.00
2013-9-8,75.1,66.4,53.5,62.0,53.3,43.0,88,65,35,30.04,29.69,7,1,0,0.01
2013-9-9,72.8,59.8,46.9,52.0,45.2,41.0,86,61,36,30.18,30.04,6,0,0,0.00
2013-9-10,76.3,68.2,58.9,71.0,63.1,52.0,94,84,75,30.11,29.98,10,0,0,0.07
2013-9-11,99.7,82.8,70.2,78.0,72.8,67.0,98,75,42,30.02,29.88,5,1,0,0.00
2013-9-12,90.9,79.3,68.0,76.0,71.5,67.0,96,78,55,29.91,29.62,6,1,0,1.03
2013-9-13,79.4,69.0,60.5,70.0,65.8,56.0,99,89,72,29.70,29.51,5,0,0,0.09
2013-9-14,68.4,62.0,54.1,56.0,54.2,51.0,91,76,64,30.00,29.70,7,0,0,0.01
2013-9-15,75.1,61.5,49.8,53.0,50.4,48.0,96,70,40,30.11,30.00,6,0,0,0.00
2013-9-16,69.8,60.1,50.8,55.0,50.8,39.0,85,72,58,30.19,29.96,7,1,0,0.00
2013-9-17,66.5,52.8,41.6,47.0,40.8,37.0,85,66,40,30.37,30.20,5,0,0,0.00
2013-9-18,78.1,59.7,43.5,51.0,45.2,41.0,95,64,28,30.27,30.09,5,0,0,0.00
2013-9-19,78.3,62.3,49.7,58.0,52.8,48.0,93,73,47,30.09,29.98,0,0,0,0.00
2013-9-20,77.3,62.9,51.4,62.0,56.6,50.0,98,82,59,30.03,29.95,2,0,0,0.00
2013-9-21,78.5,67.4,55.6,66.0,61.2,54.0,98,81,56,29.98,29.68,10,1,0,0.00
2013-9-22,73.8,66.2,55.4,68.0,58.5,46.0,97,78,49,29.77,29.56,7,1,0,0.44
2013-9-23,65.7,54.9,47.2,46.0,43.1,41.0,82,66,48,29.95,29.77,6,1,0,0.00
2013-9-24,70.0,54.5,43.5,47.0,43.5,40.0,89,69,39,29.93,29.76,7,1,0,0.00
2013-9-25,68.4,55.4,45.7,52.0,48.0,44.0,94,77,52,29.93,29.83,2,0,0,0.00
2013-9-26,69.2,58.8,53.7,54.0,50.3,48.0,90,74,52,30.07,29.93,3,0,0,0.00
2013-9-27,68.9,59.8,51.7,55.0,52.1,49.0,91,76,53,30.20,30.07,3,0,0,0.00
2013-9-28,76.5,59.9,51.4,59.0,54.2,50.0,96,83,49,30.27,30.20,4,0,0,0.00
2013-9-29,67.8,54.9,46.6,56.0,50.8,46.0,100,87,60,30.21,30.07,0,0,0,0.00
2013-9-30,69.4,56.1,49.5,56.0,51.9,48.0,99,87,58,30.07,29.92,3,0,0,0.00
2013-10-1,80.0,62.1,48.5,58.0,52.5,48.0,98,75,37,29.92,29.80,3,0,0,0.00
2013-10-2,83.0,68.0,54.9,63.0,58.7,53.0,96,74,49,29.89,29.76,5,1,0,0.00
2013-10-3,82.0,66.5,56.6,58.0,53.1,46.0,89,66,28,30.03,29.89,4,0,0,0.00
2013-10-4,68.0,60.5,53.3,61.0,55.6,50.0,95,84,70,30.03,29.98,2,0,0,0.03
2013-10-5,70.9,62.7,58.4,60.0,57.9,56.0,97,85,62,30.07,30.00,1,0,0,0.00
2013-10-6,61.0,57.4,55.1,58.0,56.3,54.0,98,96,85,30.18,30.07,1,0,0,0.34
2013-10-7,80.2,67.9,58.8,72.0,65.0,56.0,100,91,72,30.08,29.77,11,1,0,0.05
2013-10-8,69.2,59.2,50.3,56.0,46.2,41.0,82,64,37,30.32,29.85,5,1,0,0.00
2013-10-9,62.5,52.4,44.6,48.0,44.9,41.0,94,77,56,30.42,30.32,5,0,0,0.00
2013-10-10,64.8,53.2,44.9,56.0,49.9,44.0,100,89,72,30.31,30.13,2,0,0,0.00
2013-10-11,73.5,58.3,50.0,57.0,51.1,36.0,98,80,26,30.12,30.05,4,0,0,0.00
2013-10-12,60.7,56.1,51.8,57.0,53.1,50.0,97,90,83,30.34,30.10,4,0,0,0.00
2013-10-13,62.3,52.5,43.8,52.0,47.4,43.0,97,84,60,30.39,30.32,2,0,0,0.00
2013-10-14,67.6,51.1,39.0,52.0,45.6,38.0,99,83,46,30.35,30.21,2,0,0,0.00
2013-10-15,65.9,57.0,49.1,57.0,52.4,48.0,96,85,67,30.21,30.13,0,0,0,0.00
2013-10-16,63.0,55.9,50.0,57.0,53.6,49.0,99,92,80,30.12,29.86,2,0,0,0.00
2013-10-17,75.5,63.0,53.9,62.0,58.4,53.0,100,86,62,29.86,29.67,7,0,0,0.00
2013-10-18,69.4,62.4,53.5,62.0,52.6,41.0,97,72,45,29.85,29.56,7,1,0,0.04
2013-10-19,69.3,56.6,43.8,49.0,44.0,41.0,89,65,39,29.92,29.71,1,0,0,0.00
2013-10-20,63.8,55.1,44.5,53.0,42.1,34.0,96,65,36,29.96,29.64,7,1,0,0.02
2013-10-21,70.6,53.8,40.2,49.0,41.6,36.0,91,66,37,30.07,29.95,4,0,0,0.00
2013-10-22,69.2,56.9,46.2,54.0,47.6,40.0,97,73,51,29.95,29.65,6,0,0,0.00
2013-10-23,53.4,47.2,38.7,40.0,35.7,33.0,89,66,47,29.75,29.54,3,0,0,0.00
2013-10-24,54.3,47.0,40.5,37.0,31.1,26.0,76,56,36,29.83,29.58,11,1,0,0.00
2013-10-25,51.8,42.4,34.7,35.0,30.1,28.0,86,63,42,30.10,29.83,5,0,0,0.00
2013-10-26,57.5,44.4,31.8,38.0,31.4,27.0,92,64,32,30.10,29.82,8,1,0,0.00
2013-10-27,56.0,48.7,41.5,41.0,36.0,30.0,91,64,41,30.01,29.76,8,1,0,0.04
2013-10-28,60.4,46.1,35.1,37.0,32.5,26.0,88,62,37,30.29,30.01,9,1,0,0.00
2013-10-29,50.3,39.0,32.2,36.0,29.7,24.0,93,70,46,30.39,30.30,4,0,0,0.00
2013-10-30,52.6,41.2,34.7,45.0,38.1,33.0,96,89,71,30.31,30.14,1,0,0,0.06
2013-10-31,63.3,50.3,35.9,61.0,48.5,35.0,99,93,83,30.19,29.75,4,0,0,0.06
2013-11-1,71.9,65.6,59.6,64.0,59.6,55.0,96,81,65,29.73,29.41,12,2,0,0.08
2013-11-2,69.7,57.1,47.8,55.0,47.3,42.0,94,72,39,29.68,29.54,3,0,0,0.00
2013-11-3,52.2,42.7,32.7,49.0,33.5,18.0,94,72,43,30.36,29.66,6,0,0,0.06
2013-11-4,45.8,34.6,28.6,25.0,21.6,18.0,81,61,34,30.65,30.37,3,0,0,0.00
2013-11-5,53.3,39.8,28.8,37.0,29.8,23.0,82,69,45,30.66,30.46,2,0,0,0.00
2013-11-6,63.0,52.1,41.3,51.0,43.1,35.0,87,73,49,30.46,29.99,5,0,0,0.00
2013-11-7,67.3,55.5,42.9,59.0,51.4,33.0,94,86,69,29.99,29.62,8,1,0,0.24
2013-11-8,48.6,40.8,33.0,34.0,28.5,23.0,79,63,49,30.04,29.76,11,2,0,0.00
2013-11-9,46.1,40.3,33.4,30.0,25.0,22.0,69,55,39,30.15,29.99,8,1,0,0.00
2013-11-10,57.0,47.0,41.5,44.0,37.8,31.0,95,72,52,29.99,29.68,9,1,0,0.06
2013-11-11,54.0,46.4,40.2,34.0,29.6,25.0,70,53,35,30.04,29.79,12,2,0,0.00
2013-11-12,49.6,36.8,28.9,41.0,26.4,17.0,91,67,53,30.13,29.84,9,2,0,0.12
2013-11-13,37.3,30.3,24.9,18.0,15.6,12.0,73,55,39,30.23,30.12,9,2,0,0.00
2013-11-14,52.2,40.7,30.4,27.0,21.9,18.0,63,48,34,30.11,29.98,8,1,0,0.00
2013-11-15,62.7,47.9,34.0,35.0,24.1,19.0,63,42,20,30.14,30.05,6,0,0,0.00
2013-11-16,62.7,46.8,38.7,37.0,32.3,26.0,83,60,25,30.26,30.13,3,0,0,0.00
2013-11-17,55.0,46.7,35.4,54.0,43.8,33.0,98,89,80,30.26,29.81,4,0,0,0.02
2013-11-18,67.4,59.7,49.5,63.0,48.9,34.0,99,71,45,29.79,29.48,10,2,0,0.13
2013-11-19,49.4,40.6,32.5,33.0,23.4,17.0,58,51,41,30.21,29.60,14,4,0,0.00
2013-11-20,43.1,33.7,28.3,17.0,15.8,13.0,62,50,31,30.57,30.22,12,1,0,0.00
2013-11-21,48.4,37.6,26.6,31.0,21.4,16.0,67,53,33,30.59,30.33,9,1,0,0.00
2013-11-22,46.5,44.4,41.4,46.0,41.8,31.0,98,90,67,30.32,29.76,2,0,0,0.26
2013-11-23,47.8,41.2,30.8,47.0,28.2,17.0,98,62,35,29.85,29.72,15,4,0,0.00
2013-11-24,30.6,25.2,21.6,17.0,5.5,-3.0,70,44,28,30.12,29.72,20,6,0,0.00
2013-11-25,33.7,26.1,17.7,18.0,3.0,-8.0,58,38,17,30.31,30.12,14,3,0,0.00
2013-11-26,44.5,37.6,32.2,44.0,25.2,18.0,97,62,46,30.28,30.00,6,1,0,0.09
2013-11-27,62.8,52.3,39.5,62.0,51.2,35.0,99,96,84,29.98,29.15,12,3,0,1.24
2013-11-28,38.9,32.2,25.6,35.0,18.3,8.0,86,58,37,30.38,29.39,12,3,0,0.00
2013-11-29,33.2,27.3,21.9,18.0,12.1,6.0,78,54,37,30.69,30.38,11,1,0,0.00
2013-11-30,34.4,26.7,17.6,27.0,17.1,10.0,77,67,58,30.73,30.40,3,0,0,0.00
2013-12-1,43.6,38.6,34.2,41.0,35.7,27.0,98,89,75,30.38,29.95,5,0,0,0.21
2013-12-2,40.2,38.2,37.0,39.0,37.6,36.0,98,97,95,29.95,29.87,4,1,0,0.01
2013-12-3,48.7,39.5,35.4,39.0,35.6,32.0,98,86,61,29.89,29.79,6,1,0,0.00
2013-12-4,43.5,36.3,31.5,32.0,29.5,27.0,93,78,54,30.15,29.89,9,1,0,0.00
2013-12-5,54.8,44.0,31.3,54.0,41.5,29.0,98,90,86,30.16,29.86,5,0,0,0.00
2013-12-6,56.9,49.8,34.6,56.0,45.9,33.0,97,87,65,30.08,29.80,7,1,0,0.28
2013-12-7,40.3,34.3,27.8,34.0,28.0,19.0,96,79,55,30.39,30.02,10,2,0,0.18
2013-12-8,30.8,28.5,22.6,21.0,18.0,16.0,82,65,56,30.54,30.39,4,0,0,0.00
2013-12-9,41.3,34.8,26.4,41.0,33.0,17.0,98,93,60,30.45,29.83,7,1,0,0.27
2013-12-10,35.4,32.3,26.3,34.0,29.4,16.0,98,90,64,29.94,29.72,8,1,0,0.03
2013-12-11,32.5,26.9,23.5,21.0,19.0,17.0,80,73,57,30.16,29.95,7,1,0,0.00
2013-12-12,25.5,22.2,18.1,19.0,8.5,1.0,82,58,36,30.22,30.02,10,2,0,0.00
2013-12-13,29.4,22.6,15.9,20.0,12.0,5.0,78,64,52,30.34,29.94,7,1,0,0.00
2013-12-14,30.4,17.6,10.7,29.0,8.5,-4.0,96,69,51,30.55,30.11,9,2,0,0.00
2013-12-15,36.2,29.1,21.7,36.0,27.2,20.0,98,92,78,30.09,29.35,14,2,0,0.03
2013-12-16,29.0,25.3,18.8,24.0,14.0,8.0,86,64,43,30.15,29.69,12,1,0,0.00
2013-12-17,22.4,15.6,7.1,21.0,9.9,0.0,93,79,60,30.24,29.89,6,1,0,0.00
2013-12-18,34.9,26.2,17.6,23.0,20.1,15.0,91,78,59,30.02,29.80,10,3,0,0.04
2013-12-19,43.2,34.5,26.3,29.0,25.4,21.0,82,70,53,30.06,29.90,8,1,0,0.17
2013-12-20,53.4,42.4,32.7,40.0,34.1,29.0,89,73,57,30.07,29.85,4,0,0,0.50
2013-12-21,57.0,49.7,43.5,49.0,44.1,36.0,90,81,70,29.90,29.81,4,0,0,0.02
2013-12-22,53.9,41.9,35.2,52.0,41.0,35.0,98,96,90,29.98,29.76,5,0,0,0.00
2013-12-23,38.0,34.6,32.6,38.0,34.0,32.0,99,98,97,30.04,29.91,4,0,0,0.57
2013-12-24,37.9,33.1,27.8,37.0,24.2,14.0,96,71,54,30.14,29.99,7,1,0,0.00
2013-12-25,27.6,19.8,14.1,15.0,7.1,1.0,76,58,45,30.49,30.14,13,2,0,0.00
2013-12-26,35.6,27.7,18.2,33.0,24.2,12.0,96,86,76,30.45,30.03,5,0,0,0.01
2013-12-27,34.2,29.1,24.5,24.0,22.1,20.0,91,76,61,30.22,30.13,8,1,0,0.03
2013-12-28,47.6,35.6,25.9,30.0,26.7,22.0,87,71,49,30.16,29.93,11,1,0,0.01
2013-12-29,44.5,38.5,32.4,41.0,33.9,27.0,98,84,66,29.98,29.34,6,1,0,1.08
2013-12-30,43.3,34.1,18.8,37.0,25.3,8.0,100,73,43,30.11,29.45,12,2,0,0.00
2013-12-31,25.6,19.5,13.8,17.0,6.1,-3.0,75,57,44,30.12,29.98,8,1,0,0.00
2014-1-1,27.5,22.1,17.2,12.0,9.3,7.0,71,58,45,30.33,30.13,7,1,0,0.00
2014-1-2,21.8,13.2,1.6,16.0,10.0,-1.0,90,87,65,30.31,29.80,7,2,0,0.00